createdAt,value
2023-05-02T00:00:09.378Z,93.90
2023-05-02T00:02:37.940Z,91.87
2023-05-02T00:05:07.766Z,93.70
2023-05-02T00:07:37.318Z,94.76
2023-05-02T00:10:06.773Z,92.01
2023-05-02T00:12:36.674Z,90.91
2023-05-02T00:15:05.895Z,91.32
2023-05-02T00:17:34.457Z,91.19
2023-05-02T00:20:04.505Z,89.80
2023-05-02T00:22:33.471Z,90.71
2023-05-02T00:25:02.152Z,92.77
2023-05-02T00:27:32.062Z,90.73
2023-05-02T00:30:02.389Z,91.68
2023-05-02T00:32:31.033Z,93.16
2023-05-02T00:34:59.492Z,92.22
2023-05-02T00:37:29.499Z,90.15
2023-05-02T00:39:58.172Z,90.30
2023-05-02T00:42:26.965Z,91.23
2023-05-02T00:44:55.394Z,91.62
2023-05-02T00:47:25.522Z,90.04
2023-05-02T00:49:54.040Z,89.88
2023-05-02T00:52:22.484Z,89.40
2023-05-02T00:54:51.476Z,89.95
2023-05-02T00:57:19.976Z,90.90
2023-05-02T00:59:48.660Z,90.63
2023-05-02T01:02:41.492Z,89.37
2023-05-02T01:05:17.376Z,89.45
2023-05-02T01:08:04.645Z,92.47
2023-05-02T01:10:49.991Z,89.57
2023-05-02T01:13:23.768Z,90.10
2023-05-02T01:15:55.050Z,89.54
2023-05-02T01:18:31.170Z,90.91
2023-05-02T01:21:02.872Z,90.64
2023-05-02T01:23:45.496Z,88.63
2023-05-02T01:26:34.238Z,89.59
2023-05-02T01:29:06.566Z,90.34
2023-05-02T01:31:39.413Z,88.24
2023-05-02T01:34:12.719Z,88.43
2023-05-02T01:36:50.443Z,89.89
2023-05-02T01:39:23.883Z,88.99
2023-05-02T01:41:55.967Z,89.34
2023-05-02T01:44:26.984Z,92.53
2023-05-02T01:46:57.660Z,90.82
2023-05-02T01:49:28.243Z,89.99
2023-05-02T01:51:59.025Z,90.82
2023-05-02T01:54:28.914Z,90.97
2023-05-02T01:56:57.924Z,89.48
2023-05-02T01:59:30.177Z,92.13
2023-05-02T02:02:00.753Z,94.00
2023-05-02T02:04:31.092Z,91.49
2023-05-02T02:07:05.503Z,91.09
2023-05-02T02:09:34.214Z,90.22
2023-05-02T02:12:08.179Z,89.91
2023-05-02T02:14:45.032Z,92.66
2023-05-02T02:17:17.990Z,89.35
2023-05-02T02:19:47.662Z,89.86
2023-05-02T02:22:19.480Z,88.25
2023-05-02T02:24:50.944Z,88.12
2023-05-02T02:27:20.864Z,88.99
2023-05-02T02:29:50.891Z,88.78
2023-05-02T02:32:19.523Z,90.00
2023-05-02T02:34:48.199Z,92.65
2023-05-02T02:37:21.234Z,91.74
2023-05-02T02:40:00.185Z,89.20
2023-05-02T02:42:40.976Z,87.93
2023-05-02T02:45:26.158Z,89.88
2023-05-02T02:48:06.960Z,91.13
2023-05-02T02:50:45.047Z,90.93
2023-05-02T02:53:20.079Z,89.16
2023-05-02T02:55:57.810Z,88.79
2023-05-02T02:58:40.802Z,88.31
2023-05-02T03:01:20.963Z,87.24
2023-05-02T03:03:51.268Z,89.08
2023-05-02T03:06:20.394Z,90.85
2023-05-02T03:08:48.920Z,87.67
2023-05-02T03:11:17.511Z,88.49
2023-05-02T03:13:45.987Z,88.27
2023-05-02T03:16:36.691Z,89.24
2023-05-02T03:19:06.280Z,91.02
2023-05-02T03:21:36.308Z,92.02
2023-05-02T03:24:06.609Z,90.24
2023-05-02T03:26:35.068Z,90.20
2023-05-02T03:29:03.702Z,88.38
2023-05-02T03:31:33.747Z,88.28
2023-05-02T03:34:03.257Z,91.59
2023-05-02T03:36:31.694Z,93.18
2023-05-02T03:39:00.171Z,93.87
2023-05-02T03:41:28.582Z,90.48
2023-05-02T03:43:57.161Z,89.73
2023-05-02T03:46:26.276Z,89.81
2023-05-02T03:48:56.102Z,90.48
2023-05-02T03:51:24.608Z,92.29
2023-05-02T03:53:53.029Z,89.44
2023-05-02T03:56:21.767Z,91.65
2023-05-02T03:58:50.711Z,93.07
2023-05-02T04:01:19.383Z,90.84
2023-05-02T04:03:47.924Z,90.55
2023-05-02T04:06:18.287Z,91.70
2023-05-02T04:08:46.787Z,90.45
2023-05-02T04:11:15.224Z,91.02
2023-05-02T04:13:43.671Z,91.13
2023-05-02T04:16:12.247Z,91.90
2023-05-02T04:18:40.780Z,93.30
2023-05-02T04:21:10.517Z,92.01
2023-05-02T04:23:41.195Z,91.68
2023-05-02T04:26:09.926Z,91.90
2023-05-02T04:28:38.347Z,91.75
2023-05-02T04:31:07.491Z,92.27
2023-05-02T04:33:36.757Z,91.34
2023-05-02T04:36:05.937Z,93.06
2023-05-02T04:38:34.368Z,92.12
2023-05-02T04:41:09.180Z,94.05
2023-05-02T04:43:38.300Z,94.01
2023-05-02T04:46:06.897Z,94.63
2023-05-02T04:48:35.421Z,94.24
2023-05-02T04:51:04.102Z,93.02
2023-05-02T04:53:32.927Z,94.30
2023-05-02T04:56:02.937Z,92.62
2023-05-02T04:58:31.394Z,93.38
2023-05-02T05:00:59.950Z,93.21
2023-05-02T05:03:30.131Z,91.86
2023-05-02T05:05:58.828Z,92.67
2023-05-02T05:08:28.638Z,93.23
2023-05-02T05:10:57.105Z,92.03
2023-05-02T05:13:27.065Z,92.79
2023-05-02T05:15:55.865Z,93.44
2023-05-02T05:18:27.717Z,93.15
2023-05-02T05:20:56.141Z,92.53
2023-05-02T05:23:24.606Z,90.91
2023-05-02T05:25:53.077Z,90.40
2023-05-02T05:28:21.542Z,92.02
2023-05-02T05:30:52.032Z,92.14
2023-05-02T05:33:20.569Z,92.21
2023-05-02T05:35:49.067Z,93.51
2023-05-02T05:38:17.494Z,93.60
2023-05-02T05:40:46.449Z,92.47
2023-05-02T05:43:15.095Z,94.00
2023-05-02T05:45:43.836Z,94.44
2023-05-02T05:48:13.789Z,93.59
2023-05-02T05:50:42.611Z,94.18
2023-05-02T05:53:11.063Z,94.24
2023-05-02T05:55:42.161Z,94.06
2023-05-02T05:58:10.928Z,94.69
2023-05-02T06:00:43.584Z,93.86
2023-05-02T06:03:13.897Z,93.61
2023-05-02T06:05:42.605Z,95.02
2023-05-02T06:08:11.032Z,95.66
2023-05-02T06:10:39.748Z,94.76
2023-05-02T06:13:08.161Z,94.53
2023-05-02T06:15:37.434Z,94.70
2023-05-02T06:18:06.011Z,94.32
2023-05-02T06:20:38.083Z,94.05
2023-05-02T06:23:06.545Z,94.98
2023-05-02T06:25:35.028Z,93.78
2023-05-02T06:28:03.984Z,93.16
2023-05-02T06:30:32.410Z,93.66
2023-05-02T06:33:01.168Z,92.23
2023-05-02T06:35:29.672Z,90.83
2023-05-02T06:37:59.484Z,89.95
2023-05-02T06:40:27.957Z,88.65
2023-05-02T06:42:57.132Z,88.97
2023-05-02T06:45:25.658Z,90.14
2023-05-02T06:47:54.206Z,89.16
2023-05-02T06:50:22.728Z,90.06
2023-05-02T06:52:53.163Z,88.84
2023-05-02T06:55:23.035Z,89.84
2023-05-02T06:57:52.162Z,88.66
2023-05-02T07:00:22.033Z,86.85
2023-05-02T07:02:51.235Z,84.58
2023-05-02T07:05:19.971Z,82.31
2023-05-02T07:07:48.406Z,84.02
2023-05-02T07:10:16.830Z,83.36
2023-05-02T07:12:46.687Z,83.88
2023-05-02T07:15:16.586Z,81.80
2023-05-02T07:17:48.049Z,81.37
2023-05-02T07:20:16.733Z,82.14
2023-05-02T07:22:45.180Z,79.89
2023-05-02T07:25:13.644Z,81.33
2023-05-02T07:27:42.106Z,80.75
2023-05-02T07:30:15.055Z,80.16
2023-05-02T07:32:43.569Z,77.86
2023-05-02T07:35:12.077Z,75.62
2023-05-02T07:37:40.780Z,74.58
2023-05-02T07:40:12.580Z,75.33
2023-05-02T07:42:41.934Z,73.04
2023-05-02T07:45:13.147Z,75.48
2023-05-02T07:47:41.948Z,75.38
2023-05-02T07:50:11.938Z,73.80
2023-05-02T07:52:41.018Z,73.73
2023-05-02T07:55:10.986Z,72.50
2023-05-02T07:57:39.503Z,73.92
2023-05-02T08:00:12.107Z,72.44
2023-05-02T08:02:41.744Z,74.80
2023-05-02T08:05:10.886Z,74.66
2023-05-02T08:07:40.033Z,71.29
2023-05-02T08:10:11.007Z,73.99
2023-05-02T08:12:44.312Z,72.99
2023-05-02T08:15:15.075Z,72.33
2023-05-02T08:20:33.240Z,72.94
2023-05-02T08:23:02.022Z,72.50
2023-05-02T08:25:31.100Z,72.43
2023-05-02T08:27:59.552Z,71.08
2023-05-02T08:30:29.412Z,71.73
2023-05-02T08:32:57.886Z,72.77
2023-05-02T08:35:26.448Z,72.18
2023-05-02T08:37:54.889Z,72.32
2023-05-02T08:40:40.565Z,71.99
2023-05-02T08:43:12.245Z,73.09
2023-05-02T08:45:44.885Z,73.35
2023-05-02T08:48:16.859Z,74.28
2023-05-02T08:50:48.869Z,74.36
2023-05-02T08:53:18.683Z,73.02
2023-05-02T08:55:48.112Z,73.36
2023-05-02T08:58:17.704Z,71.51
2023-05-02T09:00:51.036Z,72.28
2023-05-02T09:03:31.532Z,70.60
2023-05-02T09:06:08.709Z,72.34
2023-05-02T09:08:38.085Z,72.90
2023-05-02T09:11:08.558Z,71.88
2023-05-02T09:13:39.048Z,72.54
2023-05-02T09:16:11.417Z,71.78
2023-05-02T09:18:42.299Z,71.20
2023-05-02T09:21:13.347Z,70.81
2023-05-02T09:23:43.961Z,70.83
2023-05-02T09:26:18.556Z,70.78
2023-05-02T09:28:48.917Z,69.36
2023-05-02T09:31:43.635Z,65.18
2023-05-02T09:34:12.169Z,65.06
2023-05-02T09:36:44.980Z,64.05
2023-05-02T09:39:15.165Z,63.31
2023-05-02T09:41:44.356Z,64.24
2023-05-02T09:44:14.769Z,66.21
2023-05-02T09:46:46.027Z,67.71
2023-05-02T09:49:15.023Z,66.28
2023-05-02T09:51:44.279Z,68.23
2023-05-02T09:54:13.002Z,68.20
2023-05-02T09:56:56.821Z,68.74
2023-05-02T09:59:26.160Z,69.46
2023-05-02T10:02:03.151Z,68.28
2023-05-02T10:04:34.597Z,66.59
2023-05-02T10:07:06.798Z,68.01
2023-05-02T10:09:38.341Z,68.63
2023-05-02T10:12:08.591Z,67.28
2023-05-02T10:14:41.711Z,69.50
2023-05-02T10:17:16.792Z,68.39
2023-05-02T10:19:55.502Z,69.28
2023-05-02T10:22:25.207Z,66.91
2023-05-02T10:24:55.213Z,68.22
2023-05-02T10:27:23.957Z,67.03
2023-05-02T10:29:53.723Z,68.54
2023-05-02T10:32:25.718Z,67.42
2023-05-02T10:34:55.838Z,67.90
2023-05-02T10:37:26.229Z,65.57
2023-05-02T10:39:55.048Z,66.75
2023-05-02T10:42:23.852Z,63.57
2023-05-02T10:44:52.543Z,65.66
2023-05-02T10:47:24.018Z,65.63
2023-05-02T10:49:54.310Z,67.08
2023-05-02T10:52:31.817Z,66.55
2023-05-02T10:55:19.826Z,66.55
2023-05-02T10:58:23.358Z,67.21
2023-05-02T11:00:52.098Z,67.74
2023-05-02T11:03:59.865Z,68.53
2023-05-02T11:06:30.296Z,66.95
2023-05-02T11:09:34.412Z,69.05
2023-05-02T11:12:04.898Z,66.03
2023-05-02T11:14:50.829Z,65.02
2023-05-02T11:17:21.130Z,66.00
2023-05-02T11:20:31.863Z,65.71
2023-05-02T11:23:22.997Z,65.23
2023-05-02T11:25:53.143Z,65.42
2023-05-02T11:28:52.622Z,66.52
2023-05-02T11:32:03.144Z,64.90
2023-05-02T11:34:45.541Z,62.49
2023-05-02T11:37:16.580Z,60.31
2023-05-02T11:39:46.652Z,61.16
2023-05-02T11:42:30.160Z,60.39
2023-05-02T11:45:00.230Z,59.61
2023-05-02T11:47:29.724Z,59.73
2023-05-02T11:50:01.040Z,61.87
2023-05-02T11:52:30.892Z,60.68
2023-05-02T11:54:59.692Z,62.70
2023-05-02T11:57:28.422Z,61.77
2023-05-02T11:59:58.892Z,60.38
2023-05-02T12:02:38.403Z,60.25
2023-05-02T12:05:09.919Z,62.46
2023-05-02T12:07:42.488Z,62.97
2023-05-02T12:10:12.228Z,62.44
2023-05-02T12:12:42.599Z,64.44
2023-05-02T12:15:13.449Z,68.10
2023-05-02T12:17:44.297Z,68.49
2023-05-02T12:20:13.880Z,70.99
2023-05-02T12:22:44.305Z,72.32
2023-05-02T12:25:12.867Z,72.13
2023-05-02T12:27:41.307Z,71.76
2023-05-02T12:30:10.927Z,71.91
2023-05-02T12:32:45.379Z,69.98
2023-05-02T12:35:24.003Z,71.71
2023-05-02T12:37:54.382Z,68.36
2023-05-02T12:40:23.858Z,62.03
2023-05-02T12:43:04.216Z,67.06
2023-05-02T12:45:34.829Z,62.97
2023-05-02T12:48:04.233Z,64.01
2023-05-02T12:50:40.197Z,65.11
2023-05-02T12:53:10.628Z,60.91
2023-05-02T12:55:39.397Z,63.97
2023-05-02T12:58:09.991Z,63.07
2023-05-02T13:00:41.662Z,66.21
2023-05-02T13:03:11.499Z,69.56
2023-05-02T13:05:40.003Z,72.12
2023-05-02T13:08:09.817Z,72.41
2023-05-02T13:10:38.239Z,73.90
2023-05-02T13:13:06.701Z,74.18
2023-05-02T13:15:35.182Z,71.71
2023-05-02T13:18:03.976Z,74.01
2023-05-02T13:20:32.566Z,73.66
2023-05-02T13:23:01.070Z,74.25
2023-05-02T13:25:31.189Z,71.73
2023-05-02T13:28:00.054Z,77.44
2023-05-02T13:30:28.532Z,79.47
2023-05-02T13:32:58.455Z,77.88
2023-05-02T13:35:27.451Z,78.63
2023-05-02T13:37:55.932Z,80.33
2023-05-02T13:40:24.635Z,80.78
2023-05-02T13:42:54.447Z,81.19
2023-05-02T13:45:23.213Z,80.92
2023-05-02T13:47:51.653Z,82.05
2023-05-02T13:50:20.149Z,81.82
2023-05-02T13:52:49.398Z,81.00
2023-05-02T13:55:18.039Z,81.87
2023-05-02T13:57:46.705Z,82.78
2023-05-02T14:00:17.905Z,81.13
2023-05-02T14:02:48.563Z,80.82
2023-05-02T14:05:17.397Z,82.62
2023-05-02T14:07:46.609Z,79.71
2023-05-02T14:10:15.024Z,80.67
2023-05-02T14:12:43.417Z,81.91
2023-05-02T14:15:13.143Z,81.48
2023-05-02T14:17:43.057Z,80.95
2023-05-02T14:20:12.535Z,80.18
2023-05-02T14:22:40.939Z,78.12
2023-05-02T14:25:09.899Z,77.54
2023-05-02T14:27:38.324Z,77.10
2023-05-02T14:30:08.675Z,78.49
2023-05-02T14:32:37.182Z,78.91
2023-05-02T14:35:08.574Z,75.77
2023-05-02T14:37:37.006Z,75.39
2023-05-02T14:40:06.628Z,75.18
2023-05-02T14:42:35.110Z,75.37
2023-05-02T14:45:03.614Z,73.91
2023-05-02T14:47:32.259Z,74.09
2023-05-02T14:50:01.086Z,73.99
2023-05-02T14:52:31.058Z,74.18
2023-05-02T14:55:01.262Z,73.16
2023-05-02T14:57:30.094Z,74.56
2023-05-02T14:59:58.667Z,73.52
2023-05-02T15:02:27.471Z,74.22
2023-05-02T15:04:56.020Z,71.25
2023-05-02T15:07:24.705Z,74.35
2023-05-02T15:09:54.606Z,71.85
2023-05-02T15:12:23.015Z,71.64
2023-05-02T15:14:51.492Z,72.14
2023-05-02T15:17:20.003Z,72.37
2023-05-02T15:19:48.692Z,72.96
2023-05-02T15:22:18.334Z,71.54
2023-05-02T15:24:47.025Z,72.83
2023-05-02T15:27:16.829Z,72.48
2023-05-02T15:29:45.261Z,73.15
2023-05-02T15:32:13.798Z,73.70
2023-05-02T15:34:42.390Z,71.97
2023-05-02T15:37:11.764Z,71.65
2023-05-02T15:39:40.340Z,70.10
2023-05-02T15:42:08.836Z,69.52
2023-05-02T15:44:39.231Z,68.56
2023-05-02T15:47:08.493Z,68.23
2023-05-02T15:49:37.269Z,69.22
2023-05-02T15:52:05.797Z,67.06
2023-05-02T15:54:34.515Z,68.60
2023-05-02T15:57:03.481Z,69.19
2023-05-02T15:59:31.921Z,69.58
2023-05-02T16:02:01.968Z,68.32
2023-05-02T16:04:32.164Z,66.50
2023-05-02T16:07:00.731Z,64.45
2023-05-02T16:09:31.139Z,64.94
2023-05-02T16:11:59.885Z,67.05
2023-05-02T16:14:29.005Z,65.46
2023-05-02T16:16:59.771Z,64.62
2023-05-02T16:19:29.618Z,64.49
2023-05-02T16:21:58.128Z,64.74
2023-05-02T16:24:26.867Z,66.58
2023-05-02T16:26:55.539Z,67.90
2023-05-02T16:29:24.259Z,66.51
2023-05-02T16:31:52.740Z,68.38
2023-05-02T16:34:21.223Z,69.49
2023-05-02T16:36:51.488Z,70.58
2023-05-02T16:39:19.974Z,68.85
2023-05-02T16:41:49.366Z,69.20
2023-05-02T16:44:17.862Z,70.35
2023-05-02T16:46:46.638Z,68.55
2023-05-02T16:49:15.117Z,70.11
2023-05-02T16:51:43.534Z,70.15
2023-05-02T16:54:13.357Z,69.65
2023-05-02T16:56:42.695Z,70.88
2023-05-02T16:59:11.513Z,69.76
2023-05-02T17:01:40.203Z,69.85
2023-05-02T17:04:09.215Z,71.95
2023-05-02T17:06:37.783Z,71.53
2023-05-02T17:09:06.325Z,72.61
2023-05-02T17:11:36.477Z,72.57
2023-05-02T17:14:04.973Z,71.86
2023-05-02T17:16:33.473Z,70.78
2023-05-02T17:19:01.929Z,72.11
2023-05-02T17:21:31.383Z,71.66
2023-05-02T17:23:59.866Z,71.73
2023-05-02T17:26:28.328Z,71.62
2023-05-02T17:28:58.418Z,73.64
2023-05-02T17:31:27.143Z,72.65
2023-05-02T17:33:55.613Z,71.67
2023-05-02T17:36:24.060Z,70.30
2023-05-02T17:38:52.482Z,71.51
2023-05-02T17:41:20.882Z,72.11
2023-05-02T17:43:49.680Z,73.11
2023-05-02T17:46:19.487Z,72.14
2023-05-02T17:48:47.966Z,72.04
2023-05-02T17:51:16.411Z,73.36
2023-05-02T17:53:44.838Z,73.00
2023-05-02T17:56:15.966Z,72.15
2023-05-02T17:58:44.399Z,74.54
2023-05-02T18:01:14.408Z,74.06
2023-05-02T18:03:44.556Z,75.30
2023-05-02T18:06:17.782Z,76.23
2023-05-02T18:08:46.638Z,78.92
2023-05-02T18:11:16.726Z,78.41
2023-05-02T18:13:45.997Z,76.74
2023-05-02T18:16:14.883Z,79.03
2023-05-02T18:18:44.727Z,81.97
2023-05-02T18:21:16.483Z,81.99
2023-05-02T18:23:44.892Z,81.51
2023-05-02T18:26:14.224Z,82.61
2023-05-02T18:28:44.537Z,81.62
2023-05-02T18:31:19.335Z,83.18
2023-05-02T18:33:49.470Z,84.39
2023-05-02T18:36:20.680Z,84.96
2023-05-02T18:38:49.724Z,84.17
2023-05-02T18:41:18.445Z,84.63
2023-05-02T18:43:47.908Z,84.35
2023-05-02T18:46:16.424Z,84.77
2023-05-02T18:48:44.876Z,85.79
2023-05-02T18:51:15.049Z,85.33
2023-05-02T18:53:43.456Z,85.83
2023-05-02T18:56:15.402Z,84.68
2023-05-02T18:58:43.848Z,84.15
2023-05-02T19:01:15.984Z,84.82
2023-05-02T19:03:45.104Z,83.97
2023-05-02T19:06:15.136Z,82.89
2023-05-02T19:08:43.590Z,84.91
2023-05-02T19:11:12.038Z,85.72
2023-05-02T19:13:40.505Z,85.58
2023-05-02T19:16:12.861Z,86.86
2023-05-02T19:18:43.370Z,86.73
2023-05-02T19:21:14.757Z,85.01
2023-05-02T19:23:44.787Z,84.53
2023-05-02T19:26:14.204Z,86.81
2023-05-02T19:28:43.199Z,88.23
2023-05-02T19:31:12.418Z,87.15
2023-05-02T19:33:43.694Z,87.07
2023-05-02T19:36:12.309Z,88.03
2023-05-02T19:38:42.725Z,86.80
2023-05-02T19:41:11.190Z,86.84
2023-05-02T19:43:39.697Z,86.02
2023-05-02T19:46:08.220Z,85.81
2023-05-02T19:48:36.804Z,85.21
2023-05-02T19:51:05.789Z,86.40
2023-05-02T19:53:35.452Z,87.12
2023-05-02T19:56:07.676Z,87.03
2023-05-02T19:58:36.659Z,87.83
2023-05-02T20:01:05.198Z,88.23
2023-05-02T20:03:34.771Z,87.75
2023-05-02T20:06:03.681Z,87.86
2023-05-02T20:08:32.379Z,88.19
2023-05-02T20:11:01.070Z,84.88
2023-05-02T20:13:30.882Z,85.63
2023-05-02T20:16:00.070Z,87.42
2023-05-02T20:18:28.580Z,86.09
2023-05-02T20:20:57.007Z,85.63
2023-05-02T20:23:25.450Z,85.11
2023-05-02T20:25:53.894Z,86.86
2023-05-02T20:28:22.330Z,88.60
2023-05-02T20:30:52.417Z,87.92
2023-05-02T20:33:23.086Z,85.45
2023-05-02T20:35:56.216Z,86.09
2023-05-02T20:38:24.893Z,87.25
2023-05-02T20:40:53.337Z,87.96
2023-05-02T20:43:22.962Z,87.13
2023-05-02T20:45:53.074Z,85.74
2023-05-02T20:48:21.863Z,85.22
2023-05-02T20:50:54.787Z,86.02
2023-05-02T20:53:24.164Z,87.48
2023-05-02T20:55:52.740Z,86.28
2023-05-02T20:58:21.205Z,86.55
2023-05-02T21:00:52.539Z,86.60
2023-05-02T21:03:23.097Z,88.56
2023-05-02T21:05:55.285Z,86.66
2023-05-02T21:08:24.199Z,89.24
2023-05-02T21:10:52.684Z,87.25
2023-05-02T21:13:21.229Z,86.08
2023-05-02T21:15:49.819Z,87.78
2023-05-02T21:18:18.385Z,85.89
2023-05-02T21:20:50.672Z,85.77
2023-05-02T21:23:19.114Z,86.24
2023-05-02T21:25:47.537Z,87.93
2023-05-02T21:28:16.073Z,87.62
2023-05-02T21:30:44.493Z,88.63
2023-05-02T21:33:14.876Z,86.45
2023-05-02T21:35:43.326Z,85.45
2023-05-02T21:38:13.608Z,86.58
2023-05-02T21:40:42.102Z,90.04
2023-05-02T21:43:10.764Z,90.16
2023-05-02T21:45:45.819Z,86.68
2023-05-02T21:48:15.209Z,86.55
2023-05-02T21:50:45.871Z,87.83
2023-05-02T21:53:15.715Z,87.51
2023-05-02T21:55:44.108Z,87.88
2023-05-02T21:58:13.200Z,86.89
2023-05-02T22:03:34.717Z,87.73
2023-05-02T22:06:06.016Z,89.44
2023-05-02T22:08:36.412Z,86.96
2023-05-02T22:11:09.466Z,86.83
2023-05-02T22:13:38.314Z,86.57
2023-05-02T22:16:08.079Z,89.97
2023-05-02T22:18:37.014Z,86.34
2023-05-02T22:21:08.144Z,90.11
2023-05-02T22:23:38.013Z,86.50
2023-05-02T22:26:06.512Z,88.09
2023-05-02T22:28:35.063Z,87.92
2023-05-02T22:31:03.503Z,88.84
2023-05-02T22:33:31.931Z,88.00
2023-05-02T22:36:00.476Z,88.08
2023-05-02T22:38:28.918Z,89.11
2023-05-02T22:40:58.934Z,89.33
2023-05-02T22:43:27.395Z,88.93
2023-05-02T22:45:56.033Z,89.19
2023-05-02T22:48:24.502Z,88.96
2023-05-02T22:50:53.022Z,89.09
2023-05-02T22:53:21.753Z,87.92
2023-05-02T22:55:52.008Z,89.43
2023-05-02T22:58:22.019Z,90.36
2023-05-02T23:00:50.633Z,89.22
2023-05-02T23:03:19.447Z,90.35
2023-05-02T23:05:48.197Z,90.18
2023-05-02T23:08:16.620Z,87.98
2023-05-02T23:10:45.052Z,88.97
2023-05-02T23:13:14.152Z,86.59
2023-05-02T23:15:44.112Z,89.86
2023-05-02T23:18:12.958Z,90.90
2023-05-02T23:20:41.726Z,90.72
2023-05-02T23:23:10.145Z,91.50
2023-05-02T23:25:39.228Z,89.26
2023-05-02T23:28:07.767Z,87.29
2023-05-02T23:30:36.552Z,88.63
2023-05-02T23:33:06.498Z,88.90
2023-05-02T23:35:35.432Z,89.53
2023-05-02T23:38:08.016Z,91.34
2023-05-02T23:40:36.833Z,90.40
2023-05-02T23:43:07.505Z,91.47
2023-05-02T23:45:36.069Z,91.26
2023-05-02T23:48:06.368Z,87.43
2023-05-02T23:50:34.912Z,90.12
2023-05-02T23:53:03.343Z,88.66
2023-05-02T23:55:33.307Z,88.01
2023-05-02T23:58:01.849Z,89.81
